createdAt,value
2022-12-08T00:02:20.295Z,97549.95
2022-12-08T00:05:06.887Z,97543.83
2022-12-08T00:07:52.258Z,97542.73
2022-12-08T00:10:47.315Z,97540.55
2022-12-08T00:13:05.409Z,97542.84
2022-12-08T00:16:00.643Z,97541.71
2022-12-08T00:18:27.188Z,97541.98
2022-12-08T00:20:55.552Z,97541.08
2022-12-08T00:23:22.128Z,97543.77
2022-12-08T00:25:48.709Z,97548.92
2022-12-08T00:28:16.433Z,97552.02
2022-12-08T00:30:43.141Z,97556.88
2022-12-08T00:33:13.913Z,97557.30
2022-12-08T00:35:44.258Z,97560.39
2022-12-08T00:38:56.339Z,97567.54
2022-12-08T00:42:02.680Z,97565.40
2022-12-08T00:44:48.185Z,97569.55
2022-12-08T00:47:22.224Z,97573.52
2022-12-08T00:50:21.973Z,97577.23
2022-12-08T00:56:08.217Z,97580.52
2022-12-08T00:58:46.242Z,97581.08
2022-12-08T01:02:03.941Z,97581.80
2022-12-08T01:04:32.190Z,97581.53
2022-12-08T01:07:02.530Z,97584.17
2022-12-08T01:09:33.160Z,97580.80
2022-12-08T01:15:02.480Z,97578.08
2022-12-08T01:17:50.616Z,97577.16
2022-12-08T01:21:06.646Z,97584.69
2022-12-08T01:23:55.340Z,97588.91
2022-12-08T01:26:24.593Z,97585.81
2022-12-08T07:04:24.777Z,97646.38
2022-12-08T07:06:51.435Z,97654.44
2022-12-08T07:09:18.116Z,97659.05
2022-12-08T07:11:44.646Z,97662.39
2022-12-08T07:14:17.427Z,97663.59
2022-12-08T07:16:46.811Z,97662.55
2022-12-08T07:19:17.367Z,97657.53
2022-12-08T07:21:49.806Z,97661.20
2022-12-08T07:24:22.590Z,97664.16
2022-12-08T07:26:52.812Z,97664.42
2022-12-08T07:29:26.226Z,97659.02
2022-12-08T07:31:57.821Z,97661.64
2022-12-08T07:34:41.306Z,97658.88
2022-12-08T07:37:11.528Z,97659.98
2022-12-08T07:39:44.147Z,97656.08
2022-12-08T07:42:14.437Z,97657.42
2022-12-08T07:44:46.969Z,97661.98
2022-12-08T07:47:58.424Z,97657.04
2022-12-08T07:50:29.296Z,97660.67
2022-12-08T07:52:55.991Z,97653.69
2022-12-08T07:55:22.580Z,97658.18
2022-12-08T07:57:50.039Z,97661.42
2022-12-08T08:00:17.825Z,97664.42
2022-12-08T08:02:44.824Z,97670.55
2022-12-08T08:05:14.399Z,97668.34
2022-12-08T08:07:42.908Z,97661.16
2022-12-08T08:10:10.731Z,97664.40
2022-12-08T08:12:38.210Z,97666.89
2022-12-08T08:15:10.202Z,97667.81
2022-12-08T08:17:37.546Z,97670.61
2022-12-08T08:20:06.454Z,97669.39
2022-12-08T08:22:36.214Z,97670.35
2022-12-08T08:25:03.308Z,97670.98
2022-12-08T08:27:30.229Z,97668.61
2022-12-08T08:29:57.008Z,97668.39
2022-12-08T08:32:26.344Z,97665.55
2022-12-08T08:34:55.262Z,97666.23
2022-12-08T08:37:22.136Z,97664.27
2022-12-08T08:39:48.787Z,97659.50
2022-12-08T08:42:15.533Z,97660.50
2022-12-08T08:44:42.356Z,97658.34
